Time;durP1;ratioP1;P1;durP2;ratioP2;P2;SDS_P1;SDS_P2;PMS_P1;PMS_P2;Temp;Humidity;BMP_temperature;BMP_pressure;BME280_temperature;BME280_humidity;BME280_pressure;Samples;Min_cycle;Max_cycle;Signal;HPM_P1;HPM_P2
2022/09/18 00:00:43;;;;;;;4.63;1.80;;;12.20;99.90;;;;;;5058315;28;20215;-82
2022/09/18 00:03:09;;;;;;;5.80;3.07;;;12.20;99.90;;;;;;5059487;28;20216;-83
2022/09/18 00:05:36;;;;;;;4.37;2.50;;;12.10;99.90;;;;;;5051429;28;20242;-83
2022/09/18 00:08:02;;;;;;;3.63;1.53;;;12.20;99.90;;;;;;5028823;28;20231;-83
2022/09/18 00:10:28;;;;;;;4.13;2.23;;;12.10;99.90;;;;;;5065242;28;20190;-84
2022/09/18 00:12:54;;;;;;;2.40;1.60;;;12.00;99.90;;;;;;5052563;28;20758;-83
2022/09/18 00:15:19;;;;;;;1.80;1.43;;;12.10;99.90;;;;;;5055914;28;20268;-82
2022/09/18 00:17:45;;;;;;;1.90;1.63;;;12.00;99.90;;;;;;5042278;28;20209;-83
2022/09/18 00:20:10;;;;;;;4.10;1.43;;;12.00;99.90;;;;;;5041100;28;20180;-83
2022/09/18 00:22:36;;;;;;;2.57;1.47;;;12.00;99.90;;;;;;5055408;28;20255;-83
2022/09/18 00:25:01;;;;;;;3.00;1.50;;;12.00;99.90;;;;;;5031187;28;20204;-83
2022/09/18 00:27:27;;;;;;;6.00;2.80;;;11.90;99.90;;;;;;5044471;28;20207;-83
2022/09/18 00:29:52;;;;;;;1.33;1.20;;;11.90;99.90;;;;;;5052634;28;20215;-81
2022/09/18 00:32:18;;;;;;;2.47;1.67;;;11.90;99.90;;;;;;5054800;28;20207;-82
2022/09/18 00:34:43;;;;;;;2.07;1.30;;;11.80;99.90;;;;;;5044952;28;20183;-83
2022/09/18 00:37:09;;;;;;;1.53;1.40;;;11.90;99.90;;;;;;5048910;28;20670;-82
2022/09/18 00:39:35;;;;;;;2.23;1.60;;;11.80;99.90;;;;;;5034661;28;20227;-83
2022/09/18 00:42:00;;;;;;;4.30;2.27;;;11.90;99.90;;;;;;5047094;28;20204;-83
2022/09/18 00:44:36;;;;;;;3.50;2.17;;;11.90;99.90;;;;;;5061691;28;20633;-82
2022/09/18 00:47:19;;;;;;;2.80;1.60;;;11.90;99.90;;;;;;5036744;28;20192;-83
2022/09/18 00:49:50;;;;;;;2.60;1.37;;;11.80;99.90;;;;;;5033107;28;20539;-83
2022/09/18 00:52:18;;;;;;;2.20;0.90;;;11.70;99.90;;;;;;5040342;28;20256;-83
2022/09/18 00:54:48;;;;;;;2.77;1.60;;;11.60;99.90;;;;;;5056261;28;20258;-82
2022/09/18 00:57:18;;;;;;;1.57;1.00;;;11.60;99.90;;;;;;5040773;28;20202;-83
2022/09/18 00:59:46;;;;;;;4.33;2.23;;;11.70;99.90;;;;;;5051990;28;20204;-82
2022/09/18 01:02:12;;;;;;;3.37;1.10;;;11.60;99.90;;;;;;5059811;28;20243;-82
2022/09/18 01:04:38;;;;;;;2.23;1.20;;;11.70;99.90;;;;;;5052150;28;20253;-83
2022/09/18 01:07:27;;;;;;;4.57;1.67;;;11.70;99.90;;;;;;5048382;28;20211;-83
2022/09/18 01:09:56;;;;;;;1.67;0.83;;;11.70;99.90;;;;;;5038500;28;20202;-79
2022/09/18 01:12:57;;;;;;;2.57;0.97;;;11.70;99.90;;;;;;5042638;28;20282;-82
2022/09/18 01:15:25;;;;;;;2.17;1.50;;;11.60;99.90;;;;;;5031207;28;20662;-83
2022/09/18 01:18:04;;;;;;;2.23;1.73;;;11.70;99.90;;;;;;5048898;28;20235;-82
2022/09/18 01:21:18;;;;;;;1.33;0.87;;;11.60;99.90;;;;;;5036322;28;20553;-83
2022/09/18 01:23:58;;;;;;;1.00;0.80;;;11.50;99.90;;;;;;5040057;28;20219;-83
2022/09/18 01:26:53;;;;;;;2.87;2.20;;;11.50;99.90;;;;;;5057286;28;20232;-83
2022/09/18 01:30:01;;;;;;;1.53;1.30;;;11.60;99.90;;;;;;5049602;28;20171;-83
2022/09/18 01:32:39;;;;;;;3.67;1.07;;;11.60;99.90;;;;;;5040344;28;20215;-82
2022/09/18 01:35:14;;;;;;;3.40;0.70;;;11.60;99.90;;;;;;5053085;28;20264;-82
2022/09/18 01:37:45;;;;;;;1.23;0.70;;;11.60;99.90;;;;;;5037436;28;20167;-83
2022/09/18 01:40:23;;;;;;;1.87;0.77;;;11.50;99.90;;;;;;5050546;28;20199;-83
2022/09/18 01:42:52;;;;;;;2.80;1.30;;;11.60;99.90;;;;;;5031331;28;20203;-82
2022/09/18 01:45:26;;;;;;;1.90;0.73;;;11.60;99.90;;;;;;5057574;28;20199;-82
2022/09/18 01:48:00;;;;;;;1.40;0.53;;;11.60;99.90;;;;;;5034060;28;20277;-82
2022/09/18 01:50:29;;;;;;;1.60;1.00;;;11.60;99.90;;;;;;5049730;28;20708;-83
2022/09/18 01:53:10;;;;;;;1.37;0.70;;;11.60;99.90;;;;;;5058177;28;20199;-82
2022/09/18 01:55:38;;;;;;;2.20;1.40;;;11.60;99.90;;;;;;5054239;28;20191;-83
2022/09/18 01:58:07;;;;;;;2.23;0.80;;;11.60;99.90;;;;;;5031675;28;20204;-83
2022/09/18 02:00:41;;;;;;;3.80;1.17;;;11.60;99.90;;;;;;5039810;28;20229;-83
2022/09/18 02:03:13;;;;;;;2.37;1.30;;;11.60;99.90;;;;;;5053859;28;20214;-83
2022/09/18 02:05:44;;;;;;;1.37;0.70;;;11.60;99.90;;;;;;5044228;28;20208;-82
2022/09/18 02:08:14;;;;;;;2.90;1.00;;;11.60;99.90;;;;;;5043565;28;20226;-82
2022/09/18 02:11:15;;;;;;;4.00;1.43;;;11.60;99.90;;;;;;5048804;28;20231;-80
2022/09/18 02:13:50;;;;;;;1.93;0.63;;;11.60;99.90;;;;;;4984517;28;20199;-83
2022/09/18 02:16:28;;;;;;;2.70;0.80;;;11.60;99.90;;;;;;5029001;28;20206;-83
2022/09/18 02:18:59;;;;;;;2.03;1.20;;;11.60;99.90;;;;;;5025203;28;20556;-83
2022/09/18 02:21:29;;;;;;;1.23;1.10;;;11.60;99.90;;;;;;5031236;28;20219;-83
2022/09/18 02:24:04;;;;;;;2.10;1.10;;;11.50;99.90;;;;;;5043659;28;20243;-83
2022/09/18 02:26:31;;;;;;;1.87;1.07;;;11.40;99.90;;;;;;5028417;28;20583;-82
2022/09/18 02:28:58;;;;;;;1.73;0.80;;;11.40;99.90;;;;;;5030668;28;20175;-83
2022/09/18 02:31:23;;;;;;;2.50;1.20;;;11.30;99.90;;;;;;5033551;28;20231;-82
2022/09/18 02:33:49;;;;;;;3.93;1.27;;;11.30;99.90;;;;;;5036276;28;20700;-82
2022/09/18 02:36:38;;;;;;;3.43;1.10;;;11.30;99.90;;;;;;5028800;28;20571;-82
2022/09/18 02:39:29;;;;;;;1.90;1.30;;;11.30;99.90;;;;;;5027995;28;20200;-82
2022/09/18 02:42:23;;;;;;;3.33;1.23;;;11.30;99.90;;;;;;5044317;28;20634;-83
2022/09/18 02:45:16;;;;;;;3.37;1.53;;;11.30;99.90;;;;;;5046828;28;20221;-83
2022/09/18 02:47:50;;;;;;;6.00;1.87;;;11.30;99.90;;;;;;5028959;28;20217;-83
2022/09/18 02:50:24;;;;;;;5.40;1.47;;;11.30;99.90;;;;;;5027923;28;20200;-82
2022/09/18 02:53:12;;;;;;;6.97;2.60;;;11.30;99.90;;;;;;5040950;28;20168;-83
2022/09/18 02:56:01;;;;;;;6.60;2.00;;;11.30;99.90;;;;;;5044651;28;20203;-82
2022/09/18 02:58:37;;;;;;;8.40;2.40;;;11.30;99.90;;;;;;5047687;28;20286;-83
2022/09/18 03:01:04;;;;;;;8.93;2.13;;;11.30;99.90;;;;;;5042926;28;20225;-83
2022/09/18 03:03:32;;;;;;;7.23;2.53;;;11.40;99.90;;;;;;5046193;28;20748;-81
2022/09/18 03:05:58;;;;;;;8.33;2.10;;;11.30;99.90;;;;;;5020963;28;20262;-81
2022/09/18 03:08:24;;;;;;;5.33;2.10;;;11.30;99.90;;;;;;5044113;28;20209;-81
2022/09/18 03:10:49;;;;;;;6.60;2.30;;;11.30;99.90;;;;;;5025403;28;20199;-81
2022/09/18 03:13:15;;;;;;;5.00;1.90;;;11.30;99.90;;;;;;5025666;28;20204;-82
2022/09/18 03:15:41;;;;;;;8.83;2.30;;;11.30;99.90;;;;;;5026869;28;20207;-81
2022/09/18 03:18:07;;;;;;;6.07;2.47;;;11.30;99.90;;;;;;5024431;28;20220;-81
2022/09/18 03:20:32;;;;;;;10.23;2.43;;;11.30;99.90;;;;;;5044915;28;20219;-81
2022/09/18 03:22:58;;;;;;;13.30;2.73;;;11.30;99.90;;;;;;5031304;28;20176;-81
2022/09/18 03:25:24;;;;;;;10.30;2.40;;;11.30;99.90;;;;;;5044117;28;20204;-81
2022/09/18 03:27:55;;;;;;;14.03;2.53;;;11.30;99.90;;;;;;5025824;28;20224;-81
2022/09/18 03:30:22;;;;;;;8.20;2.43;;;11.20;99.90;;;;;;5044533;28;20204;-80
2022/09/18 03:32:48;;;;;;;8.83;2.17;;;11.20;99.90;;;;;;5032762;28;20208;-80
2022/09/18 03:35:13;;;;;;;12.57;3.67;;;11.20;99.90;;;;;;5032383;28;20275;-80
2022/09/18 03:37:39;;;;;;;13.80;3.47;;;11.20;99.90;;;;;;5034358;28;20218;-79
2022/09/18 03:40:05;;;;;;;8.17;2.90;;;11.30;99.90;;;;;;5033681;28;20200;-80
2022/09/18 03:42:30;;;;;;;10.13;2.70;;;11.20;99.90;;;;;;5044676;28;20666;-80
2022/09/18 03:44:56;;;;;;;13.90;4.00;;;11.30;99.90;;;;;;5042352;28;20270;-81
2022/09/18 03:47:24;;;;;;;13.10;3.70;;;11.30;99.90;;;;;;5044762;28;20671;-79
2022/09/18 03:49:49;;;;;;;12.10;3.67;;;11.20;99.90;;;;;;5026403;28;20192;-80
2022/09/18 03:52:15;;;;;;;10.90;3.90;;;11.20;99.90;;;;;;5044414;28;20270;-80
2022/09/18 03:54:40;;;;;;;12.90;3.70;;;11.20;99.90;;;;;;5048439;28;20275;-80
2022/09/18 03:57:06;;;;;;;13.57;3.77;;;11.20;99.90;;;;;;5046520;28;20249;-80
2022/09/18 03:59:31;;;;;;;12.47;3.57;;;11.10;99.90;;;;;;5047835;28;20199;-80
2022/09/18 04:01:57;;;;;;;17.93;3.73;;;11.20;99.90;;;;;;5045962;28;20318;-80
2022/09/18 04:04:23;;;;;;;15.73;4.33;;;11.20;99.90;;;;;;5032777;28;20214;-80
2022/09/18 04:06:49;;;;;;;15.23;4.20;;;11.20;99.90;;;;;;5045313;28;20209;-80
2022/09/18 04:09:15;;;;;;;12.00;3.83;;;11.20;99.90;;;;;;5046623;28;20287;-80
2022/09/18 04:11:41;;;;;;;11.40;3.33;;;11.10;99.90;;;;;;5032775;28;20236;-80
2022/09/18 04:14:06;;;;;;;10.77;3.97;;;11.00;99.90;;;;;;5045229;28;20670;-81
2022/09/18 04:16:32;;;;;;;10.53;3.40;;;11.10;99.90;;;;;;5030225;28;20262;-80
2022/09/18 04:18:58;;;;;;;9.23;3.60;;;11.20;99.90;;;;;;5025972;28;20696;-80
2022/09/18 04:21:24;;;;;;;12.03;3.43;;;11.10;99.90;;;;;;5044966;28;20554;-80
2022/09/18 04:23:50;;;;;;;8.37;3.23;;;11.00;99.90;;;;;;5043914;28;20299;-80
2022/09/18 04:26:15;;;;;;;11.77;3.33;;;11.00;99.90;;;;;;5045014;28;20211;-80
2022/09/18 04:28:41;;;;;;;9.03;3.40;;;11.00;99.90;;;;;;5051477;28;20593;-79
2022/09/18 04:31:06;;;;;;;6.87;3.00;;;11.00;99.90;;;;;;5029089;28;20269;-80
2022/09/18 04:33:32;;;;;;;10.80;3.57;;;11.00;99.90;;;;;;5028647;28;20196;-80
2022/09/18 04:35:58;;;;;;;11.90;2.83;;;11.00;99.90;;;;;;5033188;28;20662;-80
2022/09/18 04:38:26;;;;;;;9.60;3.33;;;11.00;99.90;;;;;;5052937;28;20204;-80
2022/09/18 04:40:59;;;;;;;15.77;3.90;;;11.00;99.90;;;;;;5034736;28;20202;-79
2022/09/18 04:43:26;;;;;;;12.50;3.67;;;11.00;99.90;;;;;;5052845;28;20192;-79
2022/09/18 04:45:52;;;;;;;12.33;3.60;;;11.00;99.90;;;;;;5052922;28;20212;-80
2022/09/18 04:48:18;;;;;;;8.27;2.90;;;11.00;99.90;;;;;;5049582;28;20215;-79
2022/09/18 04:50:45;;;;;;;10.97;3.33;;;11.00;99.90;;;;;;5046326;28;20208;-79
2022/09/18 04:53:11;;;;;;;10.67;3.13;;;11.00;99.90;;;;;;5035251;28;20244;-80
2022/09/18 04:55:38;;;;;;;13.73;2.90;;;11.00;99.90;;;;;;5056658;28;20174;-79
2022/09/18 04:58:04;;;;;;;9.83;3.00;;;11.00;99.90;;;;;;5028883;28;20204;-82
2022/09/18 05:00:30;;;;;;;12.97;2.90;;;11.00;99.90;;;;;;5049053;28;20222;-80
2022/09/18 05:02:55;;;;;;;6.27;2.30;;;11.00;99.90;;;;;;5053445;28;20211;-79
2022/09/18 05:05:21;;;;;;;8.23;2.83;;;11.00;99.90;;;;;;5054156;28;20567;-80
2022/09/18 05:07:46;;;;;;;10.40;2.47;;;11.10;99.90;;;;;;5047283;28;20504;-80
2022/09/18 05:10:12;;;;;;;6.10;2.63;;;11.00;99.90;;;;;;5054765;28;20211;-79
2022/09/18 05:12:41;;;;;;;11.40;2.33;;;11.00;99.90;;;;;;5038840;28;20192;-79
2022/09/18 05:15:07;;;;;;;8.50;2.07;;;11.00;99.90;;;;;;5049153;28;20205;-79
2022/09/18 05:17:33;;;;;;;5.93;2.23;;;11.10;99.90;;;;;;5047790;28;20199;-79
2022/09/18 05:19:58;;;;;;;9.03;2.20;;;11.10;99.90;;;;;;5033825;28;20239;-80
2022/09/18 05:22:24;;;;;;;9.80;2.50;;;11.00;99.90;;;;;;5052166;28;20297;-80
2022/09/18 05:24:50;;;;;;;6.17;1.87;;;10.90;99.90;;;;;;5046820;28;20304;-79
2022/09/18 05:27:15;;;;;;;8.03;2.50;;;11.00;99.90;;;;;;5036905;28;20203;-79
2022/09/18 05:29:41;;;;;;;13.33;2.20;;;11.00;99.90;;;;;;5052574;28;20269;-80
2022/09/18 05:32:07;;;;;;;6.53;2.00;;;11.00;99.90;;;;;;5049639;28;20295;-80
2022/09/18 05:34:32;;;;;;;8.27;2.00;;;11.00;99.90;;;;;;5049684;28;20172;-79
2022/09/18 05:36:59;;;;;;;11.10;2.70;;;11.00;99.90;;;;;;5053013;28;20222;-79
2022/09/18 05:39:25;;;;;;;8.43;2.40;;;11.00;99.90;;;;;;5039158;28;20306;-77
2022/09/18 05:41:51;;;;;;;11.87;2.73;;;11.00;99.90;;;;;;5046637;28;20212;-79
2022/09/18 05:44:17;;;;;;;10.33;2.53;;;10.80;99.90;;;;;;5051610;28;20226;-80
2022/09/18 05:46:42;;;;;;;8.97;2.33;;;10.80;99.90;;;;;;5039228;28;20195;-79
2022/09/18 05:49:08;;;;;;;9.23;2.83;;;10.80;99.90;;;;;;5050927;28;20208;-79
2022/09/18 05:51:33;;;;;;;11.83;3.43;;;11.00;99.90;;;;;;5048188;28;20210;-79
2022/09/18 05:53:59;;;;;;;9.17;2.10;;;11.40;99.90;;;;;;5053538;28;20207;-79
2022/09/18 05:56:26;;;;;;;7.37;2.20;;;11.50;99.90;;;;;;5044501;28;20803;-79
2022/09/18 05:58:51;;;;;;;9.27;2.17;;;11.50;99.90;;;;;;5028999;28;20234;-79
2022/09/18 06:01:17;;;;;;;11.63;3.00;;;11.70;99.90;;;;;;5052876;28;20211;-79
2022/09/18 06:03:43;;;;;;;7.43;2.27;;;12.00;99.90;;;;;;5036703;28;20204;-80
2022/09/18 06:06:08;;;;;;;11.37;1.90;;;13.10;99.90;;;;;;5052634;28;20565;-79
2022/09/18 06:08:35;;;;;;;11.43;2.03;;;14.20;99.90;;;;;;5048351;28;20214;-80
2022/09/18 06:11:01;;;;;;;9.02;2.00;;;15.60;99.90;;;;;;5031079;28;20247;-78
2022/09/18 06:13:27;;;;;;;8.95;2.03;;;16.50;99.90;;;;;;5040602;28;20218;-80
2022/09/18 06:15:52;;;;;;;8.13;2.17;;;17.10;99.90;;;;;;5046068;28;20516;-79
2022/09/18 06:18:18;;;;;;;7.88;2.22;;;17.80;99.90;;;;;;5047120;28;20687;-80
2022/09/18 06:20:51;;;;;;;7.25;2.33;;;18.10;99.90;;;;;;5051657;28;20207;-79
2022/09/18 06:23:17;;;;;;;5.10;1.65;;;18.50;99.90;;;;;;5046919;28;20171;-80
2022/09/18 06:25:42;;;;;;;5.30;2.00;;;18.30;99.90;;;;;;5047085;28;20195;-79
2022/09/18 06:28:08;;;;;;;6.55;2.17;;;18.80;99.90;;;;;;5037205;28;20216;-79
2022/09/18 06:30:35;;;;;;;6.47;1.92;;;18.70;99.90;;;;;;5049977;28;20696;-80
2022/09/18 06:33:05;;;;;;;6.25;2.00;;;19.00;99.90;;;;;;5028119;28;20629;-79
2022/09/18 06:35:32;;;;;;;7.05;2.28;;;18.80;99.90;;;;;;5049301;28;20211;-79
2022/09/18 06:38:02;;;;;;;5.60;1.95;;;19.20;99.90;;;;;;5048717;28;20203;-79
2022/09/18 06:40:29;;;;;;;4.53;2.25;;;19.50;99.90;;;;;;5050969;28;20199;-79
2022/09/18 06:42:56;;;;;;;4.10;1.42;;;18.60;99.90;;;;;;5042845;28;20211;-79
2022/09/18 06:45:22;;;;;;;6.07;2.10;;;18.50;99.90;;;;;;5036325;28;20207;-80
2022/09/18 06:47:47;;;;;;;8.15;2.25;;;19.00;99.90;;;;;;5047727;28;20682;-80
2022/09/18 06:50:13;;;;;;;6.60;2.00;;;18.90;99.90;;;;;;5045961;28;20172;-80
2022/09/18 06:52:38;;;;;;;9.57;1.90;;;19.00;99.90;;;;;;5048851;28;20179;-80
2022/09/18 06:55:04;;;;;;;6.72;2.00;;;19.10;99.90;;;;;;5048651;28;20204;-79
2022/09/18 06:57:30;;;;;;;8.23;1.75;;;18.70;99.90;;;;;;5034230;28;20257;-80
2022/09/18 06:59:55;;;;;;;7.32;1.98;;;18.20;99.90;;;;;;5042262;28;20297;-80
2022/09/18 07:02:21;;;;;;;5.63;1.73;;;19.30;99.90;;;;;;5034643;28;20219;-79
2022/09/18 07:04:46;;;;;;;6.60;1.98;;;19.90;99.90;;;;;;5029705;28;20172;-80
2022/09/18 07:07:12;;;;;;;7.93;2.60;;;20.30;99.90;;;;;;5045274;28;20230;-80
2022/09/18 07:09:37;;;;;;;6.25;2.20;;;20.60;99.90;;;;;;5049839;28;20203;-80
2022/09/18 07:12:03;;;;;;;6.38;1.88;;;21.30;99.90;;;;;;5030275;28;20235;-79
2022/09/18 07:14:29;;;;;;;6.30;1.60;;;21.50;99.90;;;;;;5034808;28;20225;-79
2022/09/18 07:16:54;;;;;;;6.68;1.70;;;20.50;99.90;;;;;;5042136;28;20180;-79
2022/09/18 07:19:20;;;;;;;5.55;1.50;;;20.90;99.90;;;;;;5049184;28;20273;-77
2022/09/18 07:21:45;;;;;;;5.72;1.70;;;21.20;99.90;;;;;;5026366;28;20290;-78
2022/09/18 07:24:11;;;;;;;6.35;1.92;;;21.70;99.90;;;;;;5025139;28;20216;-80
2022/09/18 07:26:36;;;;;;;9.02;1.95;;;20.30;99.90;;;;;;5047642;28;20331;-79
2022/09/18 07:29:02;;;;;;;9.75;1.80;;;18.70;99.90;;;;;;5031299;28;20176;-80
2022/09/18 07:31:28;;;;;;;5.25;1.60;;;19.20;99.90;;;;;;5034755;28;20823;-79
2022/09/18 07:33:55;;;;;;;4.97;2.17;;;19.30;99.90;;;;;;5023868;28;20820;-80
2022/09/18 07:36:20;;;;;;;7.53;1.95;;;19.80;99.90;;;;;;5034779;28;20200;-81
2022/09/18 07:38:52;;;;;;;5.78;1.52;;;19.20;99.90;;;;;;5047173;28;20199;-81
2022/09/18 07:41:18;;;;;;;6.03;2.15;;;18.30;99.90;;;;;;5039846;28;20557;-81
2022/09/18 07:43:47;;;;;;;5.10;1.60;;;18.80;99.90;;;;;;5047920;28;20175;-80
2022/09/18 07:46:12;;;;;;;6.03;1.50;;;20.00;99.90;;;;;;5052090;28;20214;-80
2022/09/18 07:48:38;;;;;;;8.27;1.88;;;21.10;99.90;;;;;;5034774;28;20205;-80
2022/09/18 07:51:04;;;;;;;4.90;1.48;;;21.10;99.90;;;;;;5029730;28;20207;-81
2022/09/18 07:53:29;;;;;;;5.93;1.85;;;21.10;99.90;;;;;;5056475;28;20207;-81
2022/09/18 07:55:56;;;;;;;7.80;1.77;;;21.00;99.90;;;;;;5050604;28;20204;-80
2022/09/18 07:58:22;;;;;;;4.85;2.28;;;20.70;99.90;;;;;;5057829;28;20690;-80
2022/09/18 08:00:48;;;;;;;4.15;1.90;;;19.70;99.90;;;;;;5065632;28;20219;-80
2022/09/18 08:03:13;;;;;;;4.90;1.75;;;19.70;99.90;;;;;;5049760;28;20203;-79
2022/09/18 08:05:40;;;;;;;6.15;1.55;;;19.40;99.90;;;;;;5047833;28;20203;-78
2022/09/18 08:08:08;;;;;;;5.18;1.70;;;19.20;99.90;;;;;;5061522;28;20198;-81
2022/09/18 08:10:35;;;;;;;5.65;1.50;;;19.00;99.90;;;;;;5070429;28;20208;-80
2022/09/18 08:13:02;;;;;;;5.70;1.52;;;19.00;99.90;;;;;;5063093;28;20511;-80
2022/09/18 08:15:28;;;;;;;5.30;1.52;;;18.60;99.90;;;;;;5064085;28;20250;-80
2022/09/18 08:17:54;;;;;;;7.43;2.17;;;18.00;99.90;;;;;;5061611;28;20220;-80
2022/09/18 08:20:20;;;;;;;6.97;2.20;;;17.20;99.90;;;;;;5047270;28;20215;-81
2022/09/18 08:22:46;;;;;;;9.23;2.33;;;17.10;99.90;;;;;;5052217;28;20634;-80
2022/09/18 08:25:12;;;;;;;5.88;1.98;;;18.20;99.90;;;;;;5050031;28;20254;-79
2022/09/18 08:27:39;;;;;;;5.72;1.67;;;18.40;99.90;;;;;;5033731;28;20464;-80
2022/09/18 08:30:06;;;;;;;10.07;2.10;;;18.70;99.90;;;;;;5050874;28;20219;-79
2022/09/18 08:32:32;;;;;;;8.68;1.83;;;18.40;99.90;;;;;;5050414;28;20200;-80
2022/09/18 08:35:00;;;;;;;6.80;2.00;;;18.80;99.90;;;;;;5031611;28;20167;-79
2022/09/18 08:37:26;;;;;;;5.80;1.60;;;18.70;99.90;;;;;;5036900;28;20203;-80
2022/09/18 08:39:51;;;;;;;4.45;1.42;;;18.10;99.90;;;;;;5047925;28;20366;-79
2022/09/18 08:42:32;;;;;;;7.03;2.20;;;17.90;99.90;;;;;;5047477;28;20693;-80
2022/09/18 08:45:16;;;;;;;6.60;1.90;;;17.50;99.90;;;;;;5052185;28;20308;-81
2022/09/18 08:47:54;;;;;;;4.50;1.35;;;17.50;99.90;;;;;;5024477;28;20215;-80
2022/09/18 08:50:27;;;;;;;5.40;1.90;;;17.20;99.90;;;;;;5037714;28;20212;-80
2022/09/18 08:53:09;;;;;;;7.05;1.90;;;16.90;99.90;;;;;;5047824;28;20168;-80
2022/09/18 08:55:41;;;;;;;8.57;1.73;;;16.20;99.90;;;;;;5052708;28;20294;-80
2022/09/18 08:58:15;;;;;;;5.82;1.60;;;17.20;99.90;;;;;;5047951;28;20354;-80
2022/09/18 09:00:44;;;;;;;4.72;1.40;;;17.10;99.90;;;;;;5029401;28;20661;-80
2022/09/18 09:03:25;;;;;;;4.85;1.27;;;17.00;99.90;;;;;;5052246;28;20215;-80
2022/09/18 09:06:15;;;;;;;8.35;2.00;;;16.90;99.90;;;;;;5049754;28;20230;-79
2022/09/18 09:08:55;;;;;;;8.43;1.85;;;16.40;99.90;;;;;;5037845;28;20555;-81
2022/09/18 09:11:28;;;;;;;5.00;1.67;;;16.10;99.90;;;;;;5049644;28;20203;-81
2022/09/18 09:14:11;;;;;;;7.57;1.73;;;16.50;99.90;;;;;;5030043;28;20525;-80
2022/09/18 09:16:43;;;;;;;5.95;1.55;;;17.10;99.90;;;;;;5049567;28;20736;-80
2022/09/18 09:19:31;;;;;;;6.57;1.48;;;16.90;99.90;;;;;;5052492;28;20259;-80
2022/09/18 09:22:06;;;;;;;6.38;1.83;;;17.30;99.90;;;;;;5049102;28;20212;-81
2022/09/18 09:24:34;;;;;;;6.07;1.67;;;17.00;99.90;;;;;;5028167;28;20226;-80
2022/09/18 09:27:13;;;;;;;4.88;1.13;;;16.70;99.90;;;;;;5047148;28;20212;-79
2022/09/18 09:29:42;;;;;;;4.05;1.20;;;16.20;99.90;;;;;;5051359;28;20282;-80
2022/09/18 09:32:16;;;;;;;3.28;1.58;;;16.00;99.90;;;;;;5050161;28;20195;-80
2022/09/18 09:34:53;;;;;;;8.38;1.60;;;15.90;99.90;;;;;;5047871;28;20183;-80
2022/09/18 09:37:23;;;;;;;6.68;1.40;;;16.00;99.90;;;;;;5052255;28;20227;-81
2022/09/18 09:40:07;;;;;;;7.82;1.42;;;16.30;99.90;;;;;;5049891;28;20215;-81
2022/09/18 09:42:43;;;;;;;9.25;1.88;;;16.60;99.90;;;;;;5026490;28;20261;-81
2022/09/18 09:45:37;;;;;;;9.07;3.47;;;16.40;99.90;;;;;;5034475;28;20212;-81
2022/09/18 09:48:15;;;;;;;3.40;1.05;;;16.10;99.90;;;;;;5031677;28;20212;-80
2022/09/18 09:50:48;;;;;;;6.95;1.50;;;16.00;99.90;;;;;;5028086;28;20618;-80
2022/09/18 09:53:13;;;;;;;9.45;1.90;;;15.70;99.90;;;;;;5053766;28;20221;-81
2022/09/18 09:55:55;;;;;;;3.80;1.40;;;15.40;99.90;;;;;;5033797;28;20191;-80
2022/09/18 09:58:46;;;;;;;5.68;1.20;;;15.10;99.90;;;;;;5044262;28;20609;-81
2022/09/18 10:01:32;;;;;;;7.57;1.75;;;14.70;99.90;;;;;;5049298;28;20223;-82
2022/09/18 10:04:22;;;;;;;8.18;1.73;;;14.50;99.90;;;;;;5030923;28;20227;-81
2022/09/18 10:07:16;;;;;;;4.22;1.42;;;14.70;99.90;;;;;;5020491;28;20212;-80
2022/09/18 10:10:10;;;;;;;7.75;1.77;;;15.20;99.90;;;;;;5035810;28;20242;-80
2022/09/18 10:12:44;;;;;;;6.18;1.92;;;15.50;99.90;;;;;;5031225;28;20666;-81
2022/09/18 10:15:35;;;;;;;7.90;3.53;;;16.10;99.90;;;;;;5030252;28;20230;-82
2022/09/18 10:18:05;;;;;;;5.95;1.55;;;16.60;99.90;;;;;;5044327;28;20208;-81
2022/09/18 10:20:31;;;;;;;7.22;1.55;;;16.90;99.90;;;;;;5050197;28;20208;-81
2022/09/18 10:23:31;;;;;;;6.57;1.30;;;17.00;99.90;;;;;;5027564;28;20250;-80
2022/09/18 10:26:00;;;;;;;6.70;1.88;;;16.90;99.90;;;;;;4990962;28;20197;-80
2022/09/18 10:28:28;;;;;;;4.22;1.38;;;16.30;99.90;;;;;;5046924;28;20200;-80
2022/09/18 10:31:05;;;;;;;3.78;1.20;;;15.60;99.90;;;;;;5025976;28;20291;-81
2022/09/18 10:33:41;;;;;;;6.95;1.20;;;15.60;99.90;;;;;;5044406;28;20203;-81
2022/09/18 10:36:34;;;;;;;3.83;1.48;;;15.90;99.90;;;;;;5049172;28;20343;-81
2022/09/18 10:39:14;;;;;;;6.30;1.30;;;16.20;99.90;;;;;;5030599;28;20215;-81
2022/09/18 10:41:40;;;;;;;3.05;0.82;;;16.60;99.90;;;;;;5045504;28;20207;-81
2022/09/18 10:44:20;;;;;;;5.18;1.10;;;17.00;99.90;;;;;;5046418;28;20168;-81
2022/09/18 10:46:52;;;;;;;6.35;1.05;;;16.90;99.90;;;;;;5029360;28;20223;-81
2022/09/18 10:49:33;;;;;;;6.03;1.45;;;16.70;99.90;;;;;;5045180;28;20208;-81
2022/09/18 10:52:22;;;;;;;7.97;1.70;;;16.60;99.90;;;;;;5042615;28;20262;-82
2022/09/18 10:55:06;;;;;;;4.97;1.20;;;15.90;99.90;;;;;;5029750;28;20337;-82
2022/09/18 10:58:01;;;;;;;7.05;1.58;;;15.30;99.90;;;;;;5029848;28;20280;-82
2022/09/18 11:00:33;;;;;;;4.75;1.48;;;15.20;99.90;;;;;;5044921;28;20214;-82
2022/09/18 11:03:32;;;;;;;5.93;1.55;;;15.30;99.90;;;;;;5051109;28;20702;-81
2022/09/18 11:06:01;;;;;;;5.35;2.17;;;15.90;99.90;;;;;;5029812;28;20288;-81
2022/09/18 11:08:32;;;;;;;4.57;1.35;;;16.50;99.90;;;;;;5024640;28;20219;-82
2022/09/18 11:11:12;;;;;;;4.07;1.15;;;16.70;99.90;;;;;;5053212;28;20204;-81
2022/09/18 11:13:50;;;;;;;3.13;1.20;;;16.70;99.90;;;;;;5047572;28;20223;-81
2022/09/18 11:16:25;;;;;;;4.10;1.60;;;16.50;99.90;;;;;;5047177;28;20203;-82
2022/09/18 11:19:12;;;;;;;2.08;1.00;;;16.20;99.90;;;;;;5034413;28;20622;-79
2022/09/18 11:21:47;;;;;;;2.90;1.00;;;15.10;99.90;;;;;;5052608;28;20275;-81
2022/09/18 11:24:32;;;;;;;4.53;0.90;;;14.60;99.90;;;;;;5049752;28;20298;-82
2022/09/18 11:27:22;;;;;;;4.10;0.93;;;14.50;99.90;;;;;;5049030;28;20573;-82
2022/09/18 11:29:48;;;;;;;2.90;1.20;;;14.10;99.90;;;;;;5020702;28;20671;-82
2022/09/18 11:32:30;;;;;;;6.28;0.85;;;14.10;99.90;;;;;;5030834;28;20199;-82
2022/09/18 11:34:58;;;;;;;3.97;1.10;;;14.30;99.90;;;;;;5048680;28;20174;-82
2022/09/18 11:37:34;;;;;;;8.02;1.27;;;14.80;99.90;;;;;;5053176;28;20215;-82
2022/09/18 11:40:07;;;;;;;3.97;1.45;;;15.30;99.90;;;;;;5048100;28;20574;-82
2022/09/18 11:42:43;;;;;;;6.72;1.42;;;15.60;99.90;;;;;;5028782;28;20207;-83
2022/09/18 11:45:34;;;;;;;4.32;0.98;;;15.60;99.90;;;;;;5035524;28;20337;-82
2022/09/18 11:48:09;;;;;;;7.28;1.92;;;15.70;99.90;;;;;;5027855;28;20290;-81
2022/09/18 11:50:37;;;;;;;4.13;1.40;;;15.50;99.90;;;;;;5037575;28;20269;-82
2022/09/18 11:53:16;;;;;;;2.85;1.42;;;15.30;99.90;;;;;;5034789;28;20183;-83
2022/09/18 11:56:04;;;;;;;8.00;1.38;;;15.30;99.90;;;;;;5031086;28;20238;-83
2022/09/18 11:59:02;;;;;;;7.07;2.15;;;15.40;99.90;;;;;;5047420;28;20207;-83
2022/09/18 12:01:39;;;;;;;6.05;1.73;;;15.60;99.90;;;;;;5047525;28;20211;-83
2022/09/18 12:04:25;;;;;;;4.63;1.50;;;15.90;99.90;;;;;;5050098;28;20224;-81
2022/09/18 12:06:56;;;;;;;6.90;1.50;;;16.00;99.90;;;;;;5028939;28;20216;-83
2022/09/18 12:09:27;;;;;;;8.75;1.85;;;15.90;99.90;;;;;;5051206;28;20195;-83
2022/09/18 12:12:04;;;;;;;4.28;1.23;;;15.60;99.90;;;;;;5050074;28;20763;-81
2022/09/18 12:14:44;;;;;;;2.95;0.88;;;14.70;99.90;;;;;;5054035;28;20214;-84
2022/09/18 12:17:18;;;;;;;2.35;0.98;;;14.10;99.90;;;;;;5049567;28;20516;-83
2022/09/18 12:19:56;;;;;;;1.55;0.88;;;13.80;99.90;;;;;;5036569;28;20521;-82
2022/09/18 12:22:44;;;;;;;1.70;0.80;;;13.50;99.90;;;;;;5034255;28;20221;-83
2022/09/18 12:25:15;;;;;;;2.85;0.73;;;13.50;99.90;;;;;;5047297;28;20300;-82
2022/09/18 12:28:00;;;;;;;2.97;0.57;;;13.60;99.90;;;;;;5048633;28;20230;-83
2022/09/18 12:30:44;;;;;;;2.72;0.75;;;14.10;99.90;;;;;;5030249;28;20788;-83
2022/09/18 12:33:16;;;;;;;4.20;1.00;;;14.40;99.90;;;;;;5034249;28;20339;-83
2022/09/18 12:35:50;;;;;;;2.38;0.80;;;14.70;99.90;;;;;;5051183;28;20211;-82
2022/09/18 12:38:43;;;;;;;2.60;0.80;;;15.00;99.90;;;;;;5050524;28;20662;-83
2022/09/18 12:41:35;;;;;;;1.92;0.90;;;15.20;99.90;;;;;;5018630;28;20208;-82
2022/09/18 12:44:28;;;;;;;2.53;1.08;;;15.10;99.90;;;;;;5013273;28;20187;-83
2022/09/18 12:47:23;;;;;;;1.92;0.90;;;15.20;99.90;;;;;;5032402;28;20269;-81
2022/09/18 12:50:00;;;;;;;2.88;1.00;;;15.20;99.90;;;;;;5046926;28;20250;-83
2022/09/18 12:52:50;;;;;;;3.47;1.30;;;15.20;99.90;;;;;;5033290;28;20191;-83
2022/09/18 12:55:34;;;;;;;2.33;1.00;;;15.10;99.90;;;;;;5051306;28;20688;-82
2022/09/18 12:58:05;;;;;;;5.00;1.23;;;15.30;99.90;;;;;;5045598;28;20581;-82
2022/09/18 13:00:32;;;;;;;2.42;1.27;;;15.10;99.90;;;;;;5027566;28;20208;-82
2022/09/18 13:03:13;;;;;;;4.65;0.95;;;15.00;99.90;;;;;;5031463;28;20215;-83
2022/09/18 13:05:47;;;;;;;2.85;1.38;;;14.90;99.90;;;;;;5034355;28;20203;-82
2022/09/18 13:08:57;;;;;;;4.72;1.00;;;15.00;99.90;;;;;;5049007;28;20503;-81
2022/09/18 13:11:39;;;;;;;4.03;1.38;;;15.10;99.90;;;;;;5029138;28;20749;-81